Bangkok Bridge — 3FTZ8 — position and weather

sailwx.info

Track history (hours):
 
Tides and Currents Weather Stations Pressure Air Temp Water Temp Dewpoint Dewpoint Depression Visibility Wind Speed Wind Dir Waves Ship Positions

Bangkok Bridge

Last reported at 2015-Aug-28 09:27 UTC. Time now 2015-Sep-02 12:54 UTC.
Position N 38°10' W 124°45'.

Length 267 m; draft 10.9 m.

Type: Ship (hazmat cat A). MMSI: 353368000.

Date/timePositionNaut miles runAvg speedWind from/ knotsBaromVisibWave heightAir tempDewpointWater temp
2015-Aug-28 09:27N 38°10' W 124°45'4418.7
2015-Aug-28 07:06N 38°10' W 123°49'1018.9
2015-Aug-28 06:33N 38°10' W 123°36'1717.2
2015-Aug-28 05:33N 38°05' W 123°15'1818.4
2015-Aug-28 04:34N 37°53' W 122°57'1616.2
2015-Aug-28 03:34N 37°45' W 122°39'1212.0
2015-Aug-28 02:33N 37°51' W 122°26'5 5.4
2015-Aug-28 01:33N 37°49' W 122°19'0 0.0
2015-Aug-28 00:33N 37°49' W 122°19'0 0.0
2015-Aug-27 23:33N 37°49' W 122°19'0 0.0
2015-Aug-27 22:33N 37°49' W 122°19'0 0.0
2015-Aug-27 21:33N 37°49' W 122°19'0 0.0
2015-Aug-27 20:33N 37°49' W 122°19'0 0.0
2015-Aug-27 19:33N 37°49' W 122°19'0 0.0
2015-Aug-27 18:33N 37°49' W 122°19'0 0.0
2015-Aug-27 17:33N 37°49' W 122°19'0 0.0
2015-Aug-27 16:33N 37°49' W 122°19'0 0.0
2015-Aug-27 15:33N 37°49' W 122°19'0 0.0
2015-Aug-27 14:33N 37°49' W 122°19'0 0.0
2015-Aug-27 13:33N 37°49' W 122°19'0 0.0
2015-Aug-27 12:33N 37°49' W 122°19'0 0.0
2015-Aug-27 11:33N 37°49' W 122°19'0 0.0
2015-Aug-27 10:33N 37°49' W 122°19'0 0.0
2015-Aug-27 09:33N 37°49' W 122°19'0 0.0
2015-Aug-27 08:33N 37°49' W 122°19'0 0.0
2015-Aug-27 07:33N 37°49' W 122°19'0 0.0
2015-Aug-27 06:33N 37°49' W 122°19'0 0.0
2015-Aug-27 05:33N 37°49' W 122°19'0 0.0
2015-Aug-27 04:33N 37°49' W 122°19'0 0.0
2015-Aug-27 03:33N 37°49' W 122°19'0 0.0
2015-Aug-27 02:33N 37°49' W 122°19'0 0.0
2015-Aug-27 01:33N 37°49' W 122°19'0 0.0
2015-Aug-27 00:33N 37°49' W 122°19'3 2.8
2015-Aug-26 23:34N 37°47' W 122°22'3 3.4
2015-Aug-26 22:34N 37°44' W 122°20'0 0.0
2015-Aug-26 21:31N 37°44' W 122°20'0 0.1
2015-Aug-26 20:31N 37°44' W 122°21'0 0.0
2015-Aug-26 19:31N 37°44' W 122°21'0 0.2
2015-Aug-26 18:33N 37°44' W 122°20'0 0.1
2015-Aug-26 17:33N 37°44' W 122°20'0 0.0
2015-Aug-26 16:31N 37°44' W 122°20'0 0.0
2015-Aug-26 15:33N 37°44' W 122°20'0 0.0
2015-Aug-26 14:30N 37°44' W 122°20'0 0.0
2015-Aug-26 13:30N 37°44' W 122°20'0 0.0
2015-Aug-26 12:34N 37°44' W 122°20'0 0.2
2015-Aug-26 11:33N 37°44' W 122°20'0 0.0
2015-Aug-26 10:31N 37°44' W 122°20'0 0.0
2015-Aug-26 09:34N 37°44' W 122°20'0 0.0
2015-Aug-26 08:33N 37°44' W 122°20'0 0.0
2015-Aug-26 07:33N 37°44' W 122°20'0 0.0
2015-Aug-26 06:33N 37°44' W 122°20'0 0.2
2015-Aug-26 05:34N 37°44' W 122°20'0 0.1
2015-Aug-26 04:33N 37°44' W 122°20'0 0.1
2015-Aug-26 03:33N 37°44' W 122°20'0 0.1
2015-Aug-26 02:33N 37°44' W 122°20'0 0.0
2015-Aug-26 01:33N 37°44' W 122°20'0 0.1
2015-Aug-26 00:33N 37°44' W 122°20'0 0.1
2015-Aug-25 23:33N 37°44' W 122°20'0 0.1
2015-Aug-25 22:33N 37°44' W 122°20'0 0.1
2015-Aug-25 21:33N 37°44' W 122°20'0 0.1
2015-Aug-25 20:34N 37°44' W 122°20'0 0.0
2015-Aug-25 19:33N 37°44' W 122°20'0 0.1
2015-Aug-25 18:33N 37°44' W 122°20'0 0.1
2015-Aug-25 17:33N 37°44' W 122°20'0 0.1
2015-Aug-25 16:33N 37°44' W 122°20'0 0.0
2015-Aug-25 15:33N 37°44' W 122°20'0 0.0
2015-Aug-25 14:33N 37°44' W 122°20'0 0.0
2015-Aug-25 13:33N 37°44' W 122°20'0 0.0
2015-Aug-25 12:33N 37°44' W 122°20'0 0.1
2015-Aug-25 11:33N 37°44' W 122°20'0 0.2
2015-Aug-25 10:33N 37°44' W 122°20'0 0.1
2015-Aug-25 09:33N 37°44' W 122°20'0 0.0
2015-Aug-25 08:33N 37°44' W 122°20'0 0.0
2015-Aug-25 07:33N 37°44' W 122°20'0 0.0
2015-Aug-25 06:33N 37°44' W 122°20'0 0.1
2015-Aug-25 05:33N 37°44' W 122°20'0 0.1
2015-Aug-25 04:33N 37°44' W 122°20'0 0.1
2015-Aug-25 03:33N 37°44' W 122°20'0 0.1
2015-Aug-25 02:33N 37°44' W 122°20'4 4.2
2015-Aug-25 01:33N 37°48' W 122°23'1211.9
2015-Aug-25 00:33N 37°46' W 122°38'7 6.7
2015-Aug-24 23:33N 37°39' W 122°40'1212.0
2015-Aug-24 22:33N 37°27' W 122°40'1313.1
2015-Aug-24 21:33N 37°14' W 122°40'1717.3
2015-Aug-24 20:33N 36°57' W 122°35'1817.8
2015-Aug-24 19:33N 36°41' W 122°27'2519.7
2015-Aug-24 18:17N 36°17' W 122°16'1521.0
2015-Aug-24 17:33N 36°04' W 122°07'2121.3
2015-Aug-24 16:33N 35°45' W 121°55'2020.5
2015-Aug-24 15:33N 35°28' W 121°41'2120.5
2015-Aug-24 14:33N 35°11' W 121°27'2120.9
2015-Aug-24 13:33N 34°53' W 121°13'2121.0
2015-Aug-24 12:33N 34°36' W 120°59'2020.1
2015-Aug-24 11:33N 34°24' W 120°39'5021.8
2015-Aug-24 09:16N 34°10' W 119°41'1721.6
2015-Aug-24 08:29N 34°06' W 119°22'1819.1
2015-Aug-24 07:33N 33°58' W 119°02'1211.7
2015-Aug-24 06:32N 33°52' W 118°49'1111.5
2015-Aug-24 05:33N 33°46' W 118°38'1211.6
2015-Aug-24 04:33N 33°41' W 118°25'1111.1
2015-Aug-24 03:33N 33°38' W 118°12'6 6.1
2015-Aug-24 02:33N 33°45' W 118°12'0 0.1
2015-Aug-24 01:33N 33°45' W 118°12'0 0.1
2015-Aug-24 00:33N 33°45' W 118°12'0 0.0
2015-Aug-23 23:33N 33°45' W 118°12'0 0.0
2015-Aug-23 22:33N 33°45' W 118°12'0 0.0
2015-Aug-23 21:33N 33°45' W 118°12'0 0.0
2015-Aug-23 20:33N 33°45' W 118°12'0 0.0
2015-Aug-23 19:33N 33°45' W 118°12'0 0.1
2015-Aug-23 18:33N 33°45' W 118°12'0 0.0
2015-Aug-23 17:33N 33°45' W 118°12'0 0.0
2015-Aug-23 16:30N 33°45' W 118°12'0 0.0
2015-Aug-23 15:33N 33°45' W 118°12'0 0.0
2015-Aug-23 14:33N 33°45' W 118°12'0 0.0
2015-Aug-23 13:27N 33°45' W 118°12'0 0.0
2015-Aug-23 12:27N 33°45' W 118°12'0 0.1
2015-Aug-23 11:33N 33°45' W 118°12'0 0.0
2015-Aug-23 10:33N 33°45' W 118°12'0 0.0
2015-Aug-23 09:30N 33°45' W 118°12'0 0.0
2015-Aug-23 08:33N 33°45' W 118°12'0 0.0
2015-Aug-23 07:33N 33°45' W 118°12'0 0.0
2015-Aug-23 06:33N 33°45' W 118°12'0 0.0
2015-Aug-23 05:33N 33°45' W 118°12'0 0.0
2015-Aug-23 04:30N 33°45' W 118°12'0 0.1
2015-Aug-23 03:33N 33°45' W 118°12'0 0.1
2015-Aug-23 02:33N 33°45' W 118°12'0 0.1
2015-Aug-23 01:33N 33°45' W 118°12'0 0.1
2015-Aug-23 00:33N 33°45' W 118°12'0 0.0
2015-Aug-22 23:33N 33°45' W 118°12'0 0.0
2015-Aug-22 22:33N 33°45' W 118°12'0 0.0
2015-Aug-22 21:33N 33°45' W 118°12'0 0.0
2015-Aug-22 20:33N 33°45' W 118°12'0 0.0
2015-Aug-22 19:33N 33°45' W 118°12'0 0.0
2015-Aug-22 18:33N 33°45' W 118°12'0 0.0
2015-Aug-22 17:33N 33°45' W 118°12'0 0.0
2015-Aug-22 16:33N 33°45' W 118°12'0 0.0
2015-Aug-22 14:33N 33°45' W 118°12'0 0.0
2015-Aug-22 13:33N 33°45' W 118°12'0 0.0
2015-Aug-22 12:30N 33°45' W 118°12'0 0.0
2015-Aug-22 11:33N 33°45' W 118°12'0 0.0
2015-Aug-22 10:33N 33°45' W 118°12'0 0.0
2015-Aug-22 09:30N 33°45' W 118°12'0 0.0
2015-Aug-22 08:33N 33°45' W 118°12'0 0.0
2015-Aug-22 07:30N 33°45' W 118°12'0 0.0
2015-Aug-22 06:33N 33°45' W 118°12'0 0.1
2015-Aug-22 05:33N 33°45' W 118°12'0 0.1
2015-Aug-22 04:33N 33°45' W 118°12'0 0.0
2015-Aug-22 03:33N 33°45' W 118°12'0 0.0
2015-Aug-22 02:33N 33°45' W 118°12'0 0.0
2015-Aug-22 01:33N 33°45' W 118°12'0 0.0
2015-Aug-22 00:33N 33°45' W 118°12'0 0.0
2015-Aug-21 23:33N 33°45' W 118°12'0 0.1
2015-Aug-21 22:33N 33°45' W 118°12'0 0.0
2015-Aug-21 21:33N 33°45' W 118°12'0 0.0
2015-Aug-21 20:33N 33°45' W 118°12'0 0.0
2015-Aug-21 19:33N 33°45' W 118°12'0 0.0
2015-Aug-21 18:27N 33°45' W 118°12'0 0.1
2015-Aug-21 17:33N 33°45' W 118°12'0 0.0
2015-Aug-21 16:33N 33°45' W 118°12'0 0.0
2015-Aug-21 15:33N 33°45' W 118°12'0 0.0
2015-Aug-21 14:27N 33°45' W 118°12'0 0.0
2015-Aug-21 13:24N 33°45' W 118°12'0 0.1
2015-Aug-21 12:33N 33°45' W 118°12'5 5.3
2015-Aug-21 11:33N 33°39' W 118°11'7 6.8
2015-Aug-21 10:33N 33°36' W 118°18'10 9.6
2015-Aug-21 09:33N 33°40' W 118°29'1010.4
2015-Aug-21 08:33N 33°45' W 118°40'1110.7
2015-Aug-21 07:29N 33°51' W 118°51'1111.4
2015-Aug-21 06:33N 33°56' W 119°03'5015.0
2015-Aug-21 03:11N 34°12' W 120°00'1015.8
2015-Aug-21 02:33N 34°15' W 120°12'1616.3
2015-Aug-21 01:33N 34°19' W 120°31'3715.9
2015-Aug-20 23:13N 34°27' W 121°15'1522.0
2015-Aug-20 22:33N 34°29' W 121°32'2322.8
2015-Aug-20 21:34N 34°33' W 121°59'4522.3
2015-Aug-20 19:33N 34°40' W 122°53'17821.8
2015-Aug-20 11:23N 35°28' W 126°23'4222.3
2015-Aug-20 09:30N 35°52' W 127°05'29322.2
2015-Aug-19 20:15N 38°33' W 132°13'  
Track history (hours):
 
Tides and Currents Weather Stations Pressure Air Temp Water Temp Dewpoint Dewpoint Depression Visibility Wind Speed Wind Dir Waves Ship Positions

Bangkok Bridge

Last reported at 2015-Aug-28 09:27 UTC. Time now 2015-Sep-02 12:54 UTC.
Position N 38°10' W 124°45'.

Length 267 m; draft 10.9 m.

Type: Ship (hazmat cat A). MMSI: 353368000.

Date/timePositionNaut miles runAvg speedWind from/ knotsBaromVisibWave heightAir tempDewpointWater temp
2015-Aug-28 09:27N 38°10' W 124°45'4418.7
2015-Aug-28 07:06N 38°10' W 123°49'1018.9
2015-Aug-28 06:33N 38°10' W 123°36'1717.2
2015-Aug-28 05:33N 38°05' W 123°15'1818.4
2015-Aug-28 04:34N 37°53' W 122°57'1616.2
2015-Aug-28 03:34N 37°45' W 122°39'1212.0
2015-Aug-28 02:33N 37°51' W 122°26'5 5.4
2015-Aug-28 01:33N 37°49' W 122°19'0 0.0
2015-Aug-28 00:33N 37°49' W 122°19'0 0.0
2015-Aug-27 23:33N 37°49' W 122°19'0 0.0
2015-Aug-27 22:33N 37°49' W 122°19'0 0.0
2015-Aug-27 21:33N 37°49' W 122°19'0 0.0
2015-Aug-27 20:33N 37°49' W 122°19'0 0.0
2015-Aug-27 19:33N 37°49' W 122°19'0 0.0
2015-Aug-27 18:33N 37°49' W 122°19'0 0.0
2015-Aug-27 17:33N 37°49' W 122°19'0 0.0
2015-Aug-27 16:33N 37°49' W 122°19'0 0.0
2015-Aug-27 15:33N 37°49' W 122°19'0 0.0
2015-Aug-27 14:33N 37°49' W 122°19'0 0.0
2015-Aug-27 13:33N 37°49' W 122°19'0 0.0
2015-Aug-27 12:33N 37°49' W 122°19'0 0.0
2015-Aug-27 11:33N 37°49' W 122°19'0 0.0
2015-Aug-27 10:33N 37°49' W 122°19'0 0.0
2015-Aug-27 09:33N 37°49' W 122°19'0 0.0
2015-Aug-27 08:33N 37°49' W 122°19'0 0.0
2015-Aug-27 07:33N 37°49' W 122°19'0 0.0
2015-Aug-27 06:33N 37°49' W 122°19'0 0.0
2015-Aug-27 05:33N 37°49' W 122°19'0 0.0
2015-Aug-27 04:33N 37°49' W 122°19'0 0.0
2015-Aug-27 03:33N 37°49' W 122°19'0 0.0
2015-Aug-27 02:33N 37°49' W 122°19'0 0.0
2015-Aug-27 01:33N 37°49' W 122°19'0 0.0
2015-Aug-27 00:33N 37°49' W 122°19'3 2.8
2015-Aug-26 23:34N 37°47' W 122°22'3 3.4
2015-Aug-26 22:34N 37°44' W 122°20'0 0.0
2015-Aug-26 21:31N 37°44' W 122°20'0 0.1
2015-Aug-26 20:31N 37°44' W 122°21'0 0.0
2015-Aug-26 19:31N 37°44' W 122°21'0 0.2
2015-Aug-26 18:33N 37°44' W 122°20'0 0.1
2015-Aug-26 17:33N 37°44' W 122°20'0 0.0
2015-Aug-26 16:31N 37°44' W 122°20'0 0.0
2015-Aug-26 15:33N 37°44' W 122°20'0 0.0
2015-Aug-26 14:30N 37°44' W 122°20'0 0.0
2015-Aug-26 13:30N 37°44' W 122°20'0 0.0
2015-Aug-26 12:34N 37°44' W 122°20'0 0.2
2015-Aug-26 11:33N 37°44' W 122°20'0 0.0
2015-Aug-26 10:31N 37°44' W 122°20'0 0.0
2015-Aug-26 09:34N 37°44' W 122°20'0 0.0
2015-Aug-26 08:33N 37°44' W 122°20'0 0.0
2015-Aug-26 07:33N 37°44' W 122°20'0 0.0
2015-Aug-26 06:33N 37°44' W 122°20'0 0.2
2015-Aug-26 05:34N 37°44' W 122°20'0 0.1
2015-Aug-26 04:33N 37°44' W 122°20'0 0.1
2015-Aug-26 03:33N 37°44' W 122°20'0 0.1
2015-Aug-26 02:33N 37°44' W 122°20'0 0.0
2015-Aug-26 01:33N 37°44' W 122°20'0 0.1
2015-Aug-26 00:33N 37°44' W 122°20'0 0.1
2015-Aug-25 23:33N 37°44' W 122°20'0 0.1
2015-Aug-25 22:33N 37°44' W 122°20'0 0.1
2015-Aug-25 21:33N 37°44' W 122°20'0 0.1
2015-Aug-25 20:34N 37°44' W 122°20'0 0.0
2015-Aug-25 19:33N 37°44' W 122°20'0 0.1
2015-Aug-25 18:33N 37°44' W 122°20'0 0.1
2015-Aug-25 17:33N 37°44' W 122°20'0 0.1
2015-Aug-25 16:33N 37°44' W 122°20'0 0.0
2015-Aug-25 15:33N 37°44' W 122°20'0 0.0
2015-Aug-25 14:33N 37°44' W 122°20'0 0.0
2015-Aug-25 13:33N 37°44' W 122°20'0 0.0
2015-Aug-25 12:33N 37°44' W 122°20'0 0.1
2015-Aug-25 11:33N 37°44' W 122°20'0 0.2
2015-Aug-25 10:33N 37°44' W 122°20'0 0.1
2015-Aug-25 09:33N 37°44' W 122°20'0 0.0
2015-Aug-25 08:33N 37°44' W 122°20'0 0.0
2015-Aug-25 07:33N 37°44' W 122°20'0 0.0
2015-Aug-25 06:33N 37°44' W 122°20'0 0.1
2015-Aug-25 05:33N 37°44' W 122°20'0 0.1
2015-Aug-25 04:33N 37°44' W 122°20'0 0.1
2015-Aug-25 03:33N 37°44' W 122°20'0 0.1
2015-Aug-25 02:33N 37°44' W 122°20'4 4.2
2015-Aug-25 01:33N 37°48' W 122°23'1211.9
2015-Aug-25 00:33N 37°46' W 122°38'7 6.7
2015-Aug-24 23:33N 37°39' W 122°40'1212.0
2015-Aug-24 22:33N 37°27' W 122°40'1313.1
2015-Aug-24 21:33N 37°14' W 122°40'1717.3
2015-Aug-24 20:33N 36°57' W 122°35'1817.8
2015-Aug-24 19:33N 36°41' W 122°27'2519.7
2015-Aug-24 18:17N 36°17' W 122°16'1521.0
2015-Aug-24 17:33N 36°04' W 122°07'2121.3
2015-Aug-24 16:33N 35°45' W 121°55'2020.5
2015-Aug-24 15:33N 35°28' W 121°41'2120.5
2015-Aug-24 14:33N 35°11' W 121°27'2120.9
2015-Aug-24 13:33N 34°53' W 121°13'2121.0
2015-Aug-24 12:33N 34°36' W 120°59'2020.1
2015-Aug-24 11:33N 34°24' W 120°39'5021.8
2015-Aug-24 09:16N 34°10' W 119°41'1721.6
2015-Aug-24 08:29N 34°06' W 119°22'1819.1
2015-Aug-24 07:33N 33°58' W 119°02'1211.7
2015-Aug-24 06:32N 33°52' W 118°49'1111.5
2015-Aug-24 05:33N 33°46' W 118°38'1211.6
2015-Aug-24 04:33N 33°41' W 118°25'1111.1
2015-Aug-24 03:33N 33°38' W 118°12'6 6.1
2015-Aug-24 02:33N 33°45' W 118°12'0 0.1
2015-Aug-24 01:33N 33°45' W 118°12'0 0.1
2015-Aug-24 00:33N 33°45' W 118°12'0 0.0
2015-Aug-23 23:33N 33°45' W 118°12'0 0.0
2015-Aug-23 22:33N 33°45' W 118°12'0 0.0
2015-Aug-23 21:33N 33°45' W 118°12'0 0.0
2015-Aug-23 20:33N 33°45' W 118°12'0 0.0
2015-Aug-23 19:33N 33°45' W 118°12'0 0.1
2015-Aug-23 18:33N 33°45' W 118°12'0 0.0
2015-Aug-23 17:33N 33°45' W 118°12'0 0.0
2015-Aug-23 16:30N 33°45' W 118°12'0 0.0
2015-Aug-23 15:33N 33°45' W 118°12'0 0.0
2015-Aug-23 14:33N 33°45' W 118°12'0 0.0
2015-Aug-23 13:27N 33°45' W 118°12'0 0.0
2015-Aug-23 12:27N 33°45' W 118°12'0 0.1
2015-Aug-23 11:33N 33°45' W 118°12'0 0.0
2015-Aug-23 10:33N 33°45' W 118°12'0 0.0
2015-Aug-23 09:30N 33°45' W 118°12'0 0.0
2015-Aug-23 08:33N 33°45' W 118°12'0 0.0
2015-Aug-23 07:33N 33°45' W 118°12'0 0.0
2015-Aug-23 06:33N 33°45' W 118°12'0 0.0
2015-Aug-23 05:33N 33°45' W 118°12'0 0.0
2015-Aug-23 04:30N 33°45' W 118°12'0 0.1
2015-Aug-23 03:33N 33°45' W 118°12'0 0.1
2015-Aug-23 02:33N 33°45' W 118°12'0 0.1
2015-Aug-23 01:33N 33°45' W 118°12'0 0.1
2015-Aug-23 00:33N 33°45' W 118°12'0 0.0
2015-Aug-22 23:33N 33°45' W 118°12'0 0.0
2015-Aug-22 22:33N 33°45' W 118°12'0 0.0
2015-Aug-22 21:33N 33°45' W 118°12'0 0.0
2015-Aug-22 20:33N 33°45' W 118°12'0 0.0
2015-Aug-22 19:33N 33°45' W 118°12'0 0.0
2015-Aug-22 18:33N 33°45' W 118°12'0 0.0
2015-Aug-22 17:33N 33°45' W 118°12'0 0.0
2015-Aug-22 16:33N 33°45' W 118°12'0 0.0
2015-Aug-22 14:33N 33°45' W 118°12'0 0.0
2015-Aug-22 13:33N 33°45' W 118°12'0 0.0
2015-Aug-22 12:30N 33°45' W 118°12'0 0.0
2015-Aug-22 11:33N 33°45' W 118°12'0 0.0
2015-Aug-22 10:33N 33°45' W 118°12'0 0.0
2015-Aug-22 09:30N 33°45' W 118°12'0 0.0
2015-Aug-22 08:33N 33°45' W 118°12'0 0.0
2015-Aug-22 07:30N 33°45' W 118°12'0 0.0
2015-Aug-22 06:33N 33°45' W 118°12'0 0.1
2015-Aug-22 05:33N 33°45' W 118°12'0 0.1
2015-Aug-22 04:33N 33°45' W 118°12'0 0.0
2015-Aug-22 03:33N 33°45' W 118°12'0 0.0
2015-Aug-22 02:33N 33°45' W 118°12'0 0.0
2015-Aug-22 01:33N 33°45' W 118°12'0 0.0
2015-Aug-22 00:33N 33°45' W 118°12'0 0.0
2015-Aug-21 23:33N 33°45' W 118°12'0 0.1
2015-Aug-21 22:33N 33°45' W 118°12'0 0.0
2015-Aug-21 21:33N 33°45' W 118°12'0 0.0
2015-Aug-21 20:33N 33°45' W 118°12'0 0.0
2015-Aug-21 19:33N 33°45' W 118°12'0 0.0
2015-Aug-21 18:27N 33°45' W 118°12'0 0.1
2015-Aug-21 17:33N 33°45' W 118°12'0 0.0
2015-Aug-21 16:33N 33°45' W 118°12'0 0.0
2015-Aug-21 15:33N 33°45' W 118°12'0 0.0
2015-Aug-21 14:27N 33°45' W 118°12'0 0.0
2015-Aug-21 13:24N 33°45' W 118°12'0 0.1
2015-Aug-21 12:33N 33°45' W 118°12'5 5.3
2015-Aug-21 11:33N 33°39' W 118°11'7 6.8
2015-Aug-21 10:33N 33°36' W 118°18'10 9.6
2015-Aug-21 09:33N 33°40' W 118°29'1010.4
2015-Aug-21 08:33N 33°45' W 118°40'1110.7
2015-Aug-21 07:29N 33°51' W 118°51'1111.4
2015-Aug-21 06:33N 33°56' W 119°03'5015.0
2015-Aug-21 03:11N 34°12' W 120°00'1015.8
2015-Aug-21 02:33N 34°15' W 120°12'1616.3
2015-Aug-21 01:33N 34°19' W 120°31'3715.9
2015-Aug-20 23:13N 34°27' W 121°15'1522.0
2015-Aug-20 22:33N 34°29' W 121°32'2322.8
2015-Aug-20 21:34N 34°33' W 121°59'4522.3
2015-Aug-20 19:33N 34°40' W 122°53'17821.8
2015-Aug-20 11:23N 35°28' W 126°23'4222.3
2015-Aug-20 09:30N 35°52' W 127°05'29322.2
2015-Aug-19 20:15N 38°33' W 132°13'  

Dump ship's entire track history